Airfield :
LOGIN :

Register | Disclaimer

   EN    FR    IT 

 










Legend :    VFR   Marginal VFR   IFR   Intensive IFR   Very Intensive IFR
Visi :
Ceiling :
>= 8 km
>= 3000ft
5 to 8 km
1000 to 3000 ft
1500m to 5 km
500 to 1000 ft
800 to 1500m
200 to 500 ft
< 800m
< 200 ft
Symbols :   Thunderstorms  Fog  Heavy snow  Heavy precipitations  Wind > 20 kt
SIGMETs :     Misc.  Thunderstorms  Icing  Turbulence  Mountain Waves  Volcanic Ashes







- Airport Elevation : 755 ft
- IATA code : DRS


EDDC - Dresden Klotzsche

CURRENT METAR :
  • 200320Z 30008KT 260V330 9999 FEW009 BKN011 04/02 Q1014

EXPIRED METARs :
  • 200250Z 29007KT 260V320 9999 BKN011 BKN015 03/02 Q1014
  • 200220Z 30010KT 260V330 9999 FEW017 SCT035 03/01 Q1014
  • 200150Z 29010KT 250V320 9999 FEW012 SCT020 03/01 Q1013
  • 200120Z 29010KT 260V320 9999 FEW016 SCT023 03/01 Q1013
  • 200050Z 29013KT 9999 FEW013 SCT022 03/01 Q1013

TAF TAF EDDC
Valid from the 20 at 00:00 until the 21 at 00:00 UTC


192300Z 2000/2024 30013KT 9999 SCT015
TEMPO 2000/2012 30015G25KT
PROB30
TEMPO 2000/2014 4000 SHRA BKN009 SCT020CB
BECMG 2018/2020 20007KT
TEMPO 2020/2024 4000 -RA BKN013
No reported NOTAMs for that airfield.



MET'MAP, your aeronautical weather chart ! - Copyright ORBIFLY December 2007 - Disclaimer

ORBIFLY MET'MAP TEAM :

Programming & Development : Alexandra Zaïnal
Concept & Development : Baudouin d'Aumeries
Co-Development & Prog : Marc-Olivier Méhu
Technical & hardware support : Manuel Goepfert

Contact : metmap@orbifly.com




SOURCES & CREDITS :

   NOAA